Time;durP1;ratioP1;P1;durP2;ratioP2;P2;SDS_P1;SDS_P2;PMS_P1;PMS_P2;Temp;Humidity;BMP_temperature;BMP_pressure;BME280_temperature;BME280_humidity;BME280_pressure;Samples;Min_cycle;Max_cycle;Signal;HPM_P1;HPM_P2
2023/12/06 00:02:22;;;;;;;1999.90;999.90;;;;;;;5.43;95.72;96260.25;5097245;28;20044;-61
2023/12/06 00:04:51;;;;;;;1999.90;999.90;;;;;;;5.48;96.01;96264.47;5097084;28;20052;-62
2023/12/06 00:07:18;;;;;;;1999.90;999.90;;;;;;;5.51;95.71;96267.00;5097233;28;20052;-62
2023/12/06 00:09:45;;;;;;;1999.90;999.90;;;;;;;5.52;95.43;96264.38;5097076;28;20052;-62
2023/12/06 00:12:12;;;;;;;1999.90;999.90;;;;;;;5.54;95.53;96264.34;5096931;28;20052;-63
2023/12/06 00:14:39;;;;;;;1999.90;999.90;;;;;;;5.51;95.26;96264.41;5096835;28;20048;-61
2023/12/06 00:17:06;;;;;;;1999.90;999.90;;;;;;;5.49;95.57;96259.25;5096813;28;20059;-63
2023/12/06 00:19:33;;;;;;;1999.90;999.90;;;;;;;5.50;95.65;96260.09;5096847;28;20048;-61
2023/12/06 00:22:02;;;;;;;1999.90;999.90;;;;;;;5.52;95.45;96260.94;5096753;28;20074;-61
2023/12/06 00:24:29;;;;;;;1999.90;999.90;;;;;;;5.46;95.49;96264.50;5096849;28;20054;-63
2023/12/06 00:26:56;;;;;;;1999.90;999.90;;;;;;;5.44;95.82;96253.31;5096671;28;20123;-64
2023/12/06 00:29:23;;;;;;;1999.90;999.90;;;;;;;5.46;95.95;96243.75;5096672;28;20086;-64
2023/12/06 00:31:50;;;;;;;1999.90;999.90;;;;;;;5.39;96.06;96237.00;5096647;28;20498;-63
2023/12/06 00:34:17;;;;;;;1999.90;999.90;;;;;;;5.36;96.34;96226.69;5096677;28;20105;-61
2023/12/06 00:36:44;;;;;;;1999.90;999.90;;;;;;;5.34;96.34;96226.72;5096598;28;20048;-63
2023/12/06 00:39:13;;;;;;;1999.90;999.90;;;;;;;5.26;96.12;96220.84;5096598;28;20399;-62
2023/12/06 00:41:41;;;;;;;1999.90;999.90;;;;;;;5.17;96.52;96214.13;5096427;28;20059;-63
2023/12/06 00:44:08;;;;;;;1999.90;999.90;;;;;;;5.14;96.63;96219.38;5096442;28;20101;-61
2023/12/06 00:46:35;;;;;;;1999.90;999.90;;;;;;;5.14;96.88;96216.78;5096540;28;20044;-64
2023/12/06 00:49:03;;;;;;;1999.90;999.90;;;;;;;5.09;96.76;96216.03;5096368;28;20056;-62
2023/12/06 00:51:30;;;;;;;1999.90;999.90;;;;;;;5.04;96.83;96221.31;5096364;28;20044;-63
2023/12/06 00:53:57;;;;;;;1999.90;999.90;;;;;;;4.98;97.12;96217.09;5096480;28;20102;-61
2023/12/06 00:56:26;;;;;;;1999.90;999.90;;;;;;;4.99;97.51;96217.94;5096250;28;20133;-61
2023/12/06 00:58:53;;;;;;;1999.90;999.90;;;;;;;4.93;97.53;96209.44;5096196;28;20087;-63
2023/12/06 01:01:20;;;;;;;1999.90;999.90;;;;;;;4.95;97.69;96212.00;5096195;28;20048;-61
2023/12/06 01:03:47;;;;;;;1999.90;999.90;;;;;;;4.99;97.79;96208.44;5096295;28;20044;-63
2023/12/06 01:06:14;;;;;;;1999.90;999.90;;;;;;;5.03;97.96;96198.88;5096019;28;20102;-62
2023/12/06 01:08:41;;;;;;;1999.90;999.90;;;;;;;5.06;97.67;96206.59;5095642;28;20101;-63
2023/12/06 01:11:08;;;;;;;1999.90;999.90;;;;;;;5.11;97.33;96202.13;5095952;28;20044;-63
2023/12/06 01:13:36;;;;;;;1999.90;999.90;;;;;;;5.15;97.12;96206.38;5095856;28;20448;-61
2023/12/06 01:16:03;;;;;;;1999.90;999.90;;;;;;;5.18;97.34;96203.72;5095937;28;20052;-64
2023/12/06 01:18:30;;;;;;;1999.90;999.90;;;;;;;5.24;97.07;96191.50;5095848;28;20044;-62
2023/12/06 01:20:57;;;;;;;1999.90;999.90;;;;;;;5.27;96.76;96196.63;5095668;28;20048;-61
2023/12/06 01:23:24;;;;;;;1999.90;999.90;;;;;;;5.32;96.35;96192.19;5095713;28;20048;-60
2023/12/06 01:25:51;;;;;;;1999.90;999.90;;;;;;;5.33;96.23;96183.53;5095753;28;20489;-62
2023/12/06 01:28:20;;;;;;;1999.90;999.90;;;;;;;5.31;96.26;96178.38;5095499;28;20098;-64
2023/12/06 01:30:48;;;;;;;1999.90;999.90;;;;;;;5.27;95.96;96179.31;5095462;28;20044;-64
2023/12/06 01:33:15;;;;;;;1999.90;999.90;;;;;;;5.22;95.80;96172.53;5095696;28;20131;-63
2023/12/06 01:35:42;;;;;;;1999.90;999.90;;;;;;;5.17;95.78;96175.22;5095447;28;20090;-62
2023/12/06 01:38:11;;;;;;;1999.90;999.90;;;;;;;5.16;95.87;96174.38;5095340;28;20054;-64
2023/12/06 01:40:39;;;;;;;1999.90;999.90;;;;;;;5.13;95.99;96169.25;5095278;28;20059;-61
2023/12/06 01:43:06;;;;;;;1999.90;999.90;;;;;;;5.16;95.95;96161.41;5095283;28;20497;-64
2023/12/06 01:45:34;;;;;;;1999.90;999.90;;;;;;;5.20;95.75;96166.53;5095395;28;20051;-64
2023/12/06 01:48:04;;;;;;;1999.90;999.90;;;;;;;5.18;95.58;96162.22;5095222;28;20386;-61
2023/12/06 01:50:33;;;;;;;1999.90;999.90;;;;;;;5.19;95.74;96157.88;5095173;28;20139;-61
2023/12/06 01:53:04;;;;;;;1999.90;999.90;;;;;;;5.24;95.66;96152.59;5095213;28;20105;-63
2023/12/06 01:55:31;;;;;;;1999.90;999.90;;;;;;;5.24;96.05;96145.66;5095185;28;20123;-63
2023/12/06 01:57:59;;;;;;;1999.90;999.90;;;;;;;5.26;95.91;96143.03;5094859;28;20460;-64
2023/12/06 02:00:27;;;;;;;1999.90;999.90;;;;;;;5.28;95.99;96139.53;5094841;28;20048;-63
2023/12/06 02:02:54;;;;;;;1999.90;999.90;;;;;;;5.32;95.71;96137.69;5094958;28;20048;-64
2023/12/06 02:05:23;;;;;;;1999.90;999.90;;;;;;;5.35;95.77;96134.19;5094893;28;20517;-62
2023/12/06 02:07:51;;;;;;;1999.90;999.90;;;;;;;5.37;95.53;96125.50;5094805;28;20083;-63
2023/12/06 02:10:19;;;;;;;1999.90;999.90;;;;;;;5.39;95.62;96128.06;5094683;28;20056;-62
2023/12/06 02:12:46;;;;;;;1999.90;999.90;;;;;;;5.39;95.59;96131.47;5094744;28;20414;-63
2023/12/06 02:15:13;;;;;;;1999.90;999.90;;;;;;;5.40;95.46;96129.75;5094700;28;20126;-62
2023/12/06 02:17:41;;;;;;;1999.90;999.90;;;;;;;5.41;95.36;96129.72;5094580;28;20481;-65
2023/12/06 02:20:09;;;;;;;1999.90;999.90;;;;;;;5.37;95.38;96130.69;5093911;28;20040;-63
2023/12/06 02:22:39;;;;;;;1999.90;999.90;;;;;;;5.39;95.22;96135.84;5094811;28;20059;-62
2023/12/06 02:25:12;;;;;;;1999.90;999.90;;;;;;;5.40;95.18;96129.75;5094558;28;20048;-63
2023/12/06 02:27:41;;;;;;;1999.90;999.90;;;;;;;5.42;95.14;96125.38;5094365;28;20490;-61
2023/12/06 02:30:09;;;;;;;1999.90;999.90;;;;;;;5.44;95.12;96132.22;5094316;28;20068;-64
2023/12/06 02:32:36;;;;;;;1999.90;999.90;;;;;;;5.43;95.02;96117.56;5094396;28;20074;-63
2023/12/06 02:35:09;;;;;;;1999.90;999.90;;;;;;;5.44;95.15;96121.84;5094253;28;20561;-61
2023/12/06 02:37:36;;;;;;;1999.90;999.90;;;;;;;5.44;94.96;96119.25;5094242;28;20047;-62
2023/12/06 02:40:06;;;;;;;1999.90;999.90;;;;;;;5.44;94.83;96115.81;5094236;28;20827;-62
2023/12/06 02:42:35;;;;;;;1999.90;999.90;;;;;;;5.46;94.90;96118.34;5094148;28;20052;-62
2023/12/06 02:45:02;;;;;;;1999.90;999.90;;;;;;;5.47;94.72;96117.47;5094248;28;20127;-63
2023/12/06 02:47:29;;;;;;;1999.90;999.90;;;;;;;5.44;94.96;96108.03;5094110;28;20044;-64
2023/12/06 02:49:57;;;;;;;1999.90;999.90;;;;;;;5.42;94.98;96112.41;5093909;28;20113;-63
2023/12/06 02:52:24;;;;;;;1999.90;999.90;;;;;;;5.40;94.98;96107.25;5094133;28;20055;-61
2023/12/06 02:54:51;;;;;;;1999.90;999.90;;;;;;;5.41;95.23;96103.78;5093989;28;20044;-64
2023/12/06 02:57:18;;;;;;;1999.90;999.90;;;;;;;5.44;94.93;96100.25;5093804;28;20457;-63
2023/12/06 02:59:46;;;;;;;1999.90;999.90;;;;;;;5.44;94.76;96092.44;5093955;28;20130;-61
2023/12/06 03:02:13;;;;;;;1999.90;999.90;;;;;;;5.43;94.96;96090.75;5093826;28;20066;-64
2023/12/06 03:04:40;;;;;;;1999.90;999.90;;;;;;;5.41;95.08;96090.78;5093820;28;20076;-61
2023/12/06 03:07:07;;;;;;;1999.90;999.90;;;;;;;5.43;95.23;96083.84;5093700;28;20055;-61
2023/12/06 03:09:34;;;;;;;1999.90;999.90;;;;;;;5.43;95.30;96085.56;5093675;28;20078;-62
2023/12/06 03:12:01;;;;;;;1999.90;999.90;;;;;;;5.43;94.96;96077.78;5093640;28;20052;-62
2023/12/06 03:14:28;;;;;;;1999.90;999.90;;;;;;;5.44;94.96;96077.75;5093457;28;20144;-63
2023/12/06 03:16:57;;;;;;;1999.90;999.90;;;;;;;5.41;95.00;96077.81;5093528;28;20089;-62
2023/12/06 03:19:24;;;;;;;1999.90;999.90;;;;;;;5.37;95.44;96083.13;5093522;28;20056;-63
2023/12/06 03:21:51;;;;;;;1999.90;999.90;;;;;;;5.36;95.63;96078.84;5093434;28;20543;-63
2023/12/06 03:24:18;;;;;;;1999.90;999.90;;;;;;;5.39;95.43;96086.53;5093609;28;20463;-63
2023/12/06 03:26:45;;;;;;;1999.90;999.90;;;;;;;5.41;95.57;96089.94;5093369;28;20541;-63
2023/12/06 03:29:12;;;;;;;1999.90;999.90;;;;;;;5.39;95.47;96081.34;5093193;28;20048;-62
2023/12/06 03:31:40;;;;;;;1999.90;999.90;;;;;;;5.36;95.68;96081.44;5093425;28;20048;-62
2023/12/06 03:34:08;;;;;;;1999.90;999.90;;;;;;;5.38;95.52;96090.00;5093342;28;20402;-61
2023/12/06 03:36:35;;;;;;;1999.90;999.90;;;;;;;5.39;95.69;96089.13;5093229;28;20051;-61
2023/12/06 03:39:02;;;;;;;1999.90;999.90;;;;;;;5.42;95.64;96083.88;5093232;28;20498;-62
2023/12/06 03:41:29;;;;;;;1999.90;999.90;;;;;;;5.43;95.36;96073.47;5093296;28;20071;-64
2023/12/06 03:43:56;;;;;;;1999.90;999.90;;;;;;;5.42;95.64;96074.34;5093201;28;20044;-61
2023/12/06 03:46:23;;;;;;;1999.90;999.90;;;;;;;5.42;95.52;96071.75;5093261;28;20118;-62
2023/12/06 03:48:50;;;;;;;1999.90;999.90;;;;;;;5.43;95.51;96077.78;5093213;28;20048;-63
2023/12/06 03:51:20;;;;;;;1999.90;999.90;;;;;;;5.44;95.32;96076.88;5093187;28;20048;-63
2023/12/06 03:53:47;;;;;;;1999.90;999.90;;;;;;;5.44;95.70;96075.16;5093178;28;20044;-63
2023/12/06 03:56:14;;;;;;;1999.90;999.90;;;;;;;5.38;95.88;96077.91;5093048;28;20490;-63
2023/12/06 03:58:41;;;;;;;1999.90;999.90;;;;;;;5.40;95.95;96083.06;5093078;28;20138;-61
2023/12/06 04:01:08;;;;;;;1999.90;999.90;;;;;;;5.40;96.18;96089.09;5093118;28;20044;-63
2023/12/06 04:03:35;;;;;;;1999.90;999.90;;;;;;;5.39;96.18;96092.56;5093001;28;20052;-61
2023/12/06 04:06:02;;;;;;;1999.90;999.90;;;;;;;5.36;96.43;96084.03;5092941;28;20142;-64
2023/12/06 04:08:31;;;;;;;1999.90;999.90;;;;;;;5.40;96.38;96077.88;5093103;28;20076;-62
2023/12/06 04:10:58;;;;;;;1999.90;999.90;;;;;;;5.42;96.42;96086.47;5092961;28;20044;-63
2023/12/06 04:13:25;;;;;;;1999.90;999.90;;;;;;;5.39;96.55;96081.34;5092841;28;20565;-62
2023/12/06 04:15:52;;;;;;;1999.90;999.90;;;;;;;5.40;96.32;96080.47;5093032;28;20044;-64
2023/12/06 04:18:20;;;;;;;1999.90;999.90;;;;;;;5.37;96.47;96071.03;5093050;28;20047;-64
2023/12/06 04:20:47;;;;;;;1999.90;999.90;;;;;;;5.36;96.40;96074.47;5092957;28;20101;-63
2023/12/06 04:23:14;;;;;;;1999.90;999.90;;;;;;;5.35;96.51;96069.31;5092829;28;20079;-64
2023/12/06 04:25:43;;;;;;;1999.90;999.90;;;;;;;5.37;96.68;96070.16;5092761;28;20048;-62
2023/12/06 04:28:10;;;;;;;1999.90;999.90;;;;;;;5.39;96.42;96065.78;5092527;28;20080;-60
2023/12/06 04:30:37;;;;;;;1999.90;999.90;;;;;;;5.43;96.23;96076.06;5092784;28;20052;-61
2023/12/06 04:33:04;;;;;;;1999.90;999.90;;;;;;;5.46;96.12;96071.66;5092728;28;20080;-62
2023/12/06 04:35:31;;;;;;;1999.90;999.90;;;;;;;5.47;96.08;96071.63;5092613;28;20482;-61
2023/12/06 04:37:58;;;;;;;1999.90;999.90;;;;;;;5.46;96.38;96071.66;5092583;28;20085;-61
2023/12/06 04:40:25;;;;;;;1999.90;999.90;;;;;;;5.46;96.35;96075.13;5092831;28;20444;-63
2023/12/06 04:42:56;;;;;;;1999.90;999.90;;;;;;;5.49;96.12;96074.19;5094031;28;20040;-63
2023/12/06 04:45:23;;;;;;;1999.90;999.90;;;;;;;5.51;96.00;96068.06;5096640;28;20075;-61
2023/12/06 04:47:50;;;;;;;1999.90;999.90;;;;;;;5.52;95.95;96071.50;5096429;28;20507;-64
2023/12/06 04:50:17;;;;;;;1999.90;999.90;;;;;;;5.54;95.89;96067.97;5096264;28;20420;-61
2023/12/06 04:52:45;;;;;;;1999.90;999.90;;;;;;;5.56;96.05;96068.81;5096331;28;20495;-62
2023/12/06 04:55:12;;;;;;;1999.90;999.90;;;;;;;5.57;95.69;96064.47;5096230;28;20048;-62
2023/12/06 04:57:39;;;;;;;1999.90;999.90;;;;;;;5.57;95.64;96070.50;5096160;28;20501;-61
2023/12/06 05:00:09;;;;;;;1999.90;999.90;;;;;;;5.57;95.61;96065.31;5096148;28;20052;-61
2023/12/06 05:02:36;;;;;;;1999.90;999.90;;;;;;;5.60;95.67;96066.97;5096132;28;20079;-63
2023/12/06 05:05:04;;;;;;;1999.90;999.90;;;;;;;5.61;95.62;96066.09;5096063;28;20048;-64
2023/12/06 05:07:31;;;;;;;1999.90;999.90;;;;;;;5.61;95.89;96070.44;5095968;28;20050;-63
2023/12/06 05:09:58;;;;;;;1999.90;999.90;;;;;;;5.62;95.56;96065.19;5095964;28;20074;-61
2023/12/06 05:12:26;;;;;;;1999.90;999.90;;;;;;;5.62;95.57;96062.59;5095970;28;20056;-62
2023/12/06 05:14:53;;;;;;;1999.90;999.90;;;;;;;5.59;95.91;96061.81;5095740;28;20044;-64
2023/12/06 05:17:21;;;;;;;1999.90;999.90;;;;;;;5.56;95.47;96063.63;5095765;28;20040;-64
2023/12/06 05:19:48;;;;;;;1999.90;999.90;;;;;;;5.48;95.56;96060.34;5095741;28;20040;-64
2023/12/06 05:22:15;;;;;;;1999.90;999.90;;;;;;;5.37;96.09;96062.38;5095703;28;20079;-60
2023/12/06 05:24:43;;;;;;;1999.90;999.90;;;;;;;5.36;96.48;96068.47;5095618;28;20115;-63
2023/12/06 05:27:10;;;;;;;1999.90;999.90;;;;;;;5.26;96.33;96060.03;5095353;28;20044;-62
2023/12/06 05:29:37;;;;;;;1999.90;999.90;;;;;;;5.18;96.91;96068.03;5095794;28;20052;-62
2023/12/06 05:32:05;;;;;;;1999.90;999.90;;;;;;;5.17;97.23;96061.97;5095560;28;20120;-61
2023/12/06 05:34:34;;;;;;;1999.90;999.90;;;;;;;5.09;97.63;96058.69;5095542;28;20048;-61
2023/12/06 05:37:01;;;;;;;1999.90;999.90;;;;;;;5.05;97.41;96064.84;5095554;28;20482;-62
2023/12/06 05:39:28;;;;;;;1999.90;999.90;;;;;;;5.03;98.15;96066.66;5095386;28;20044;-63
2023/12/06 05:41:55;;;;;;;1999.90;999.90;;;;;;;4.97;98.21;96057.25;5095334;28;20075;-64
2023/12/06 05:44:23;;;;;;;1999.90;999.90;;;;;;;4.98;98.48;96060.69;5095321;28;20055;-63
2023/12/06 05:46:50;;;;;;;1999.90;999.90;;;;;;;4.96;98.90;96068.50;5095375;28;20139;-62
2023/12/06 05:49:17;;;;;;;1999.90;999.90;;;;;;;4.99;99.62;96063.25;5095125;28;20490;-64
2023/12/06 05:51:46;;;;;;;1999.90;999.90;;;;;;;5.02;99.42;96063.19;5095197;28;20056;-61
2023/12/06 05:54:13;;;;;;;1999.90;999.90;;;;;;;4.98;99.65;96061.56;5093971;28;20055;-61
2023/12/06 05:56:40;;;;;;;1999.90;999.90;;;;;;;4.97;99.75;96062.44;5095201;28;20048;-64
2023/12/06 05:59:07;;;;;;;1999.90;999.90;;;;;;;4.93;100.00;96069.44;5094871;28;20441;-61
2023/12/06 06:01:34;;;;;;;1999.90;999.90;;;;;;;4.91;100.00;96072.97;5095044;28;20612;-61
2023/12/06 06:04:01;;;;;;;1999.90;999.90;;;;;;;4.91;100.00;96080.75;5095066;28;20051;-62
2023/12/06 06:06:34;;;;;;;1999.90;999.90;;;;;;;4.93;100.00;96076.34;5094902;28;20044;-64
2023/12/06 06:09:03;;;;;;;1999.90;999.90;;;;;;;4.94;100.00;96075.50;5094915;28;20123;-64
2023/12/06 06:11:30;;;;;;;1999.90;999.90;;;;;;;4.96;100.00;96075.47;5094684;28;20052;-62
2023/12/06 06:13:57;;;;;;;1999.90;999.90;;;;;;;5.02;100.00;96078.75;5094638;28;20097;-63
2023/12/06 06:16:24;;;;;;;1999.90;999.90;;;;;;;5.06;100.00;96082.97;5094599;28;20052;-63
2023/12/06 06:18:51;;;;;;;1999.90;999.90;;;;;;;5.11;100.00;96076.81;5094623;28;20119;-63
2023/12/06 06:21:19;;;;;;;1999.90;999.90;;;;;;;5.05;100.00;96080.41;5094671;28;20044;-63
2023/12/06 06:23:46;;;;;;;1999.90;999.90;;;;;;;5.15;100.00;96081.06;5094447;28;20051;-64
2023/12/06 06:26:16;;;;;;;1999.90;999.90;;;;;;;5.24;99.77;96082.59;5094461;28;20048;-62
2023/12/06 06:28:43;;;;;;;1999.90;999.90;;;;;;;5.29;99.51;96088.50;5094237;28;20497;-61
2023/12/06 06:31:10;;;;;;;1999.90;999.90;;;;;;;5.30;99.62;96080.69;5094420;28;20052;-62
2023/12/06 06:33:37;;;;;;;1999.90;999.90;;;;;;;5.36;99.60;96077.06;5094517;28;20093;-62
2023/12/06 06:36:05;;;;;;;1999.90;999.90;;;;;;;5.40;99.51;96076.13;5094446;28;20052;-62
2023/12/06 06:38:33;;;;;;;1999.90;999.90;;;;;;;5.41;99.20;96085.59;5094263;28;20047;-64
2023/12/06 06:41:00;;;;;;;1999.90;999.90;;;;;;;5.40;99.41;96085.66;5094093;28;20047;-62
2023/12/06 06:43:28;;;;;;;1999.90;999.90;;;;;;;5.43;99.39;96078.66;5094154;28;20059;-62
2023/12/06 06:45:55;;;;;;;1999.90;999.90;;;;;;;5.43;99.30;96083.84;5094180;28;20485;-63
2023/12/06 06:48:22;;;;;;;1999.90;999.90;;;;;;;5.47;99.00;96083.75;5094098;28;20044;-63
2023/12/06 06:50:50;;;;;;;1999.90;999.90;;;;;;;5.50;98.96;96087.13;5093894;28;20052;-63
2023/12/06 06:53:17;;;;;;;1999.90;999.90;;;;;;;5.55;98.97;96082.69;5093907;28;20090;-63
2023/12/06 06:55:44;;;;;;;1999.90;999.90;;;;;;;5.58;99.01;96089.53;5094035;28;20044;-64
2023/12/06 06:58:12;;;;;;;1999.90;999.90;;;;;;;5.60;99.44;96079.94;5094019;28;20077;-64
2023/12/06 07:00:41;;;;;;;1999.90;999.90;;;;;;;5.56;99.41;96083.50;5093990;28;20048;-63
2023/12/06 07:03:08;;;;;;;1999.90;999.90;;;;;;;5.62;100.00;96087.69;5093836;28;20496;-64
2023/12/06 07:05:35;;;;;;;1999.90;999.90;;;;;;;5.72;100.00;96083.97;5093474;28;20484;-62
2023/12/06 07:08:02;;;;;;;1999.90;999.90;;;;;;;5.73;100.00;96092.63;5093814;28;20052;-62
2023/12/06 07:10:29;;;;;;;1999.90;999.90;;;;;;;5.80;100.00;96079.44;5093532;28;20555;-63
2023/12/06 07:12:56;;;;;;;1999.90;999.90;;;;;;;5.75;99.67;96086.47;5093509;28;20106;-61
2023/12/06 07:15:25;;;;;;;1999.90;999.90;;;;;;;5.63;99.51;96082.47;5093496;28;20083;-64
2023/12/06 07:17:54;;;;;;;1999.90;999.90;;;;;;;5.67;100.00;96081.50;5093582;28;20048;-65
2023/12/06 07:20:21;;;;;;;1999.90;999.90;;;;;;;5.74;100.00;96079.59;5093514;28;20486;-64
2023/12/06 07:22:49;;;;;;;1999.90;999.90;;;;;;;5.79;99.55;96079.47;5093507;28;20056;-63
2023/12/06 07:25:16;;;;;;;1999.90;999.90;;;;;;;5.81;99.10;96078.53;5093548;28;20044;-61
2023/12/06 07:27:45;;;;;;;1999.90;999.90;;;;;;;5.84;99.97;96082.78;5093246;28;20056;-62
2023/12/06 07:30:13;;;;;;;1999.90;999.90;;;;;;;5.78;99.98;96082.97;5093592;28;20047;-61
2023/12/06 07:32:40;;;;;;;1999.90;999.90;;;;;;;5.77;99.82;96076.06;5093364;28;20052;-64
2023/12/06 07:35:10;;;;;;;1999.90;999.90;;;;;;;5.62;99.99;96075.56;5093412;28;20135;-63
2023/12/06 07:37:37;;;;;;;1999.90;999.90;;;;;;;5.60;100.00;96077.34;5093265;28;20044;-64
2023/12/06 07:40:09;;;;;;;1999.90;999.90;;;;;;;5.57;100.00;96078.28;5093244;28;20130;-62
2023/12/06 07:42:36;;;;;;;1999.90;999.90;;;;;;;5.49;100.00;96079.38;5093120;28;20051;-63
2023/12/06 07:45:04;;;;;;;1999.90;999.90;;;;;;;5.53;100.00;96083.59;5093177;28;20052;-64
2023/12/06 07:47:31;;;;;;;1999.90;999.90;;;;;;;5.48;100.00;96077.69;5093239;28;20102;-62
2023/12/06 07:49:59;;;;;;;1999.90;999.90;;;;;;;5.48;100.00;96075.91;5093094;28;20482;-63
2023/12/06 07:52:27;;;;;;;1999.90;999.90;;;;;;;5.48;100.00;96083.69;5092972;28;20135;-64
2023/12/06 07:54:54;;;;;;;1999.90;999.90;;;;;;;5.57;100.00;96080.06;5093060;28;20044;-61
2023/12/06 07:57:23;;;;;;;1999.90;999.90;;;;;;;5.55;100.00;96081.81;5093010;28;20048;-64
2023/12/06 07:59:50;;;;;;;1999.90;999.90;;;;;;;5.57;100.00;96086.06;5093073;28;20139;-62
2023/12/06 08:02:18;;;;;;;1999.90;999.90;;;;;;;5.57;100.00;96083.47;5092989;28;20383;-61
2023/12/06 08:04:45;;;;;;;1999.90;999.90;;;;;;;5.61;100.00;96078.22;5093129;28;20128;-63
2023/12/06 08:07:12;;;;;;;1999.90;999.90;;;;;;;5.66;100.00;96084.16;5092989;28;20048;-63
2023/12/06 08:09:40;;;;;;;1999.90;999.90;;;;;;;5.58;100.00;96076.56;5093011;28;20051;-61
2023/12/06 08:12:08;;;;;;;1999.90;999.90;;;;;;;5.59;100.00;96077.38;5092912;28;20140;-64
2023/12/06 08:14:35;;;;;;;1999.90;999.90;;;;;;;5.54;100.00;96086.16;5092926;28;20078;-61
2023/12/06 08:17:02;;;;;;;1999.90;999.90;;;;;;;5.48;100.00;96083.69;5092843;28;20130;-62
2023/12/06 08:19:29;;;;;;;1999.90;999.90;;;;;;;5.44;100.00;96080.34;5096944;28;20048;-61
2023/12/06 08:21:56;;;;;;;1999.90;999.90;;;;;;;5.42;100.00;96081.28;5097032;28;20080;-62
2023/12/06 08:24:23;;;;;;;1999.90;999.90;;;;;;;5.43;100.00;96072.59;5096854;28;20048;-61
2023/12/06 08:26:52;;;;;;;1999.90;999.90;;;;;;;5.42;100.00;96066.56;5096859;28;20076;-63
2023/12/06 08:29:19;;;;;;;1999.90;999.90;;;;;;;5.47;100.00;96071.63;5056646;28;20045;-63
2023/12/06 08:31:46;;;;;;;1999.90;999.90;;;;;;;5.48;100.00;96075.09;5056414;28;20052;-62
2023/12/06 08:34:13;;;;;;;1999.90;999.90;;;;;;;5.49;100.00;96067.25;5056453;28;20483;-63
2023/12/06 08:36:40;;;;;;;1999.90;999.90;;;;;;;5.58;100.00;96071.38;5056517;28;20049;-62
2023/12/06 08:39:07;;;;;;;1999.90;999.90;;;;;;;5.61;100.00;96068.69;5056408;28;20049;-63
2023/12/06 08:41:34;;;;;;;1999.90;999.90;;;;;;;5.65;100.00;96070.31;5056304;28;20495;-63
2023/12/06 08:44:04;;;;;;;1999.90;999.90;;;;;;;5.63;100.00;96071.25;5056299;28;20049;-64
2023/12/06 08:46:31;;;;;;;;;;;;;;;5.63;100.00;96063.47;5056760;28;20419;-64
2023/12/06 08:48:58;;;;;;;1999.90;999.90;;;;;;;5.67;100.00;96063.34;5056052;28;19976;-63
2023/12/06 08:51:25;;;;;;;1999.90;999.90;;;;;;;5.78;100.00;96060.44;5055977;28;20072;-62
2023/12/06 08:53:53;;;;;;;1999.90;999.90;;;;;;;5.79;100.00;96063.91;5056061;28;20060;-62
2023/12/06 08:56:20;;;;;;;1999.90;999.90;;;;;;;5.82;99.93;96069.03;5056126;28;20056;-63
2023/12/06 08:58:47;;;;;;;1999.90;999.90;;;;;;;5.78;99.66;96060.44;5056003;28;20110;-63
2023/12/06 09:01:16;;;;;;;1999.90;999.90;;;;;;;5.80;99.64;96065.59;5055824;28;20053;-63
2023/12/06 09:03:44;;;;;;;1999.90;999.90;;;;;;;5.81;99.77;96057.78;5055947;28;20103;-61
2023/12/06 09:06:11;;;;;;;1999.90;999.90;;;;;;;5.83;99.59;96057.72;5055868;28;20103;-63
2023/12/06 09:08:38;;;;;;;1999.90;999.90;;;;;;;5.88;99.44;96055.88;5055875;28;20088;-63
2023/12/06 09:11:07;;;;;;;1999.90;999.90;;;;;;;5.90;99.29;96055.84;5055745;28;20051;-61
2023/12/06 09:13:34;;;;;;;1999.90;999.90;;;;;;;5.87;98.44;96045.53;5055750;28;20053;-64
2023/12/06 09:16:01;;;;;;;1999.90;999.90;;;;;;;5.91;98.76;96036.75;5055576;28;20545;-63
2023/12/06 09:18:30;;;;;;;1999.90;999.90;;;;;;;5.96;98.47;96037.47;5055734;28;20049;-61
2023/12/06 09:20:57;;;;;;;1999.90;999.90;;;;;;;6.00;97.83;96033.06;5055603;28;20099;-62
2023/12/06 09:23:24;;;;;;;1999.90;999.90;;;;;;;6.06;97.88;96035.53;5055510;28;20053;-63
2023/12/06 09:25:51;;;;;;;1999.90;999.90;;;;;;;6.04;97.20;96024.31;5055503;28;20045;-61
2023/12/06 09:28:18;;;;;;;1999.90;999.90;;;;;;;6.00;97.13;96020.06;5079140;28;20083;-64
2023/12/06 09:30:45;;;;;;;1999.90;999.90;;;;;;;6.05;96.59;96011.28;5095580;28;20079;-61
2023/12/06 09:33:12;;;;;;;1999.90;999.90;;;;;;;5.99;95.48;96005.41;5095576;28;20135;-63
2023/12/06 09:35:41;;;;;;;1999.90;999.90;;;;;;;6.04;95.83;96007.00;5095552;28;20131;-63
2023/12/06 09:38:08;;;;;;;1999.90;999.90;;;;;;;6.12;95.30;96003.31;5095384;28;20048;-63
2023/12/06 09:40:36;;;;;;;1999.90;999.90;;;;;;;6.17;94.72;95991.91;5095443;28;20052;-64
2023/12/06 09:43:03;;;;;;;1999.90;999.90;;;;;;;6.21;95.27;95999.59;5095377;28;20105;-62
2023/12/06 09:45:31;;;;;;;1999.90;999.90;;;;;;;6.19;95.15;95994.47;5095363;28;20555;-64
2023/12/06 09:47:58;;;;;;;1999.90;999.90;;;;;;;6.13;94.41;95987.72;5095399;28;20079;-62
2023/12/06 09:50:26;;;;;;;1999.90;999.90;;;;;;;6.14;94.71;95985.97;5095213;28;20140;-63
2023/12/06 09:52:55;;;;;;;1999.90;999.90;;;;;;;6.22;94.45;95986.59;5095115;28;20052;-64
2023/12/06 09:55:24;;;;;;;1999.90;999.90;;;;;;;6.17;93.75;95989.31;5095095;28;20139;-63
2023/12/06 09:57:52;;;;;;;1999.90;999.90;;;;;;;6.20;93.66;95990.97;5095048;28;20040;-63
2023/12/06 10:00:19;;;;;;;1999.90;999.90;;;;;;;6.16;93.11;95989.34;5095072;28;20055;-64
2023/12/06 10:02:54;;;;;;;1999.90;999.90;;;;;;;6.26;93.56;95983.00;5095047;28;20075;-63
2023/12/06 10:05:21;;;;;;;1999.90;999.90;;;;;;;6.32;93.06;95981.94;5094886;28;20527;-64
2023/12/06 10:07:48;;;;;;;1999.90;999.90;;;;;;;6.29;91.47;95982.06;5095033;28;20121;-63
2023/12/06 10:10:19;;;;;;;1999.90;999.90;;;;;;;6.32;91.49;95975.03;5094932;28;20152;-62
2023/12/06 10:12:47;;;;;;;1999.90;999.90;;;;;;;6.32;90.04;95974.16;5094799;28;20051;-61
2023/12/06 10:15:15;;;;;;;1999.90;999.90;;;;;;;6.36;89.89;95974.94;5094729;28;20040;-63
2023/12/06 10:17:42;;;;;;;1999.90;999.90;;;;;;;6.41;90.11;95965.25;5094745;28;20040;-63
2023/12/06 10:20:10;;;;;;;1999.90;999.90;;;;;;;6.45;90.58;95966.88;5094665;28;20501;-61
2023/12/06 10:22:37;;;;;;;1999.90;999.90;;;;;;;6.44;90.27;95968.59;5094661;28;20052;-63
2023/12/06 10:25:06;;;;;;;1999.90;999.90;;;;;;;6.44;89.14;95965.13;5094563;28;20458;-63
2023/12/06 10:27:35;;;;;;;1999.90;999.90;;;;;;;6.40;89.55;95959.22;5094288;28;20044;-62
2023/12/06 10:30:03;;;;;;;1999.90;999.90;;;;;;;6.42;89.73;95961.75;5094601;28;20165;-63
2023/12/06 10:32:32;;;;;;;1999.90;999.90;;;;;;;6.44;89.66;95955.59;5094554;28;20480;-60
2023/12/06 10:35:01;;;;;;;1999.90;999.90;;;;;;;6.45;89.08;95952.09;5094510;28;20052;-62
2023/12/06 10:37:29;;;;;;;1999.90;999.90;;;;;;;6.37;89.66;95954.09;5094244;28;20497;-62
2023/12/06 10:40:01;;;;;;;1999.90;999.90;;;;;;;6.35;90.64;95944.66;5093839;28;20076;-62
2023/12/06 10:42:35;;;;;;;1999.90;999.90;;;;;;;6.34;91.45;95936.00;5094331;28;20126;-63
2023/12/06 10:45:04;;;;;;;1999.90;999.90;;;;;;;6.42;92.54;95934.00;5094340;28;20119;-64
2023/12/06 10:47:32;;;;;;;1999.90;999.90;;;;;;;6.42;92.52;95931.41;5094186;28;20098;-63
2023/12/06 10:50:00;;;;;;;1999.90;999.90;;;;;;;6.47;92.75;95933.88;5094047;28;20047;-62
2023/12/06 10:52:30;;;;;;;1999.90;999.90;;;;;;;6.44;92.58;95936.56;5093853;28;20054;-64
2023/12/06 10:54:59;;;;;;;1999.90;999.90;;;;;;;6.42;92.40;95935.78;5093949;28;20490;-64
2023/12/06 10:57:28;;;;;;;1999.90;999.90;;;;;;;6.36;91.71;95933.38;5093903;28;20124;-62
2023/12/06 10:59:59;;;;;;;1999.90;999.90;;;;;;;6.42;91.88;95925.38;5093825;28;20485;-63
2023/12/06 11:02:26;;;;;;;1999.90;999.90;;;;;;;6.37;90.78;95924.66;5093954;28;20048;-62